createdAt,value
2018-05-04T05:36:10.838Z,13344
2018-05-04T05:36:51.399Z,34176
2018-05-04T05:37:31.974Z,56512
2018-05-04T05:38:12.561Z,76192
2018-05-04T05:38:53.127Z,87328
2018-05-04T05:39:33.683Z,87776
2018-05-04T05:40:14.233Z,87488
2018-05-04T05:40:54.779Z,87424
2018-05-04T05:41:35.346Z,85952
2018-05-04T05:42:15.912Z,84512
2018-05-04T05:42:56.525Z,83648
2018-05-04T05:43:38.331Z,82976
2018-05-04T05:44:19.969Z,83488
2018-05-04T05:45:00.539Z,86208
2018-05-04T05:45:41.260Z,87520
2018-05-04T05:46:21.930Z,87712
2018-05-04T05:47:02.519Z,87840
2018-05-04T05:47:43.198Z,86816
2018-05-04T05:48:23.931Z,88448
2018-05-04T05:49:04.796Z,89248
2018-05-04T05:49:45.471Z,88352
2018-05-04T05:50:26.098Z,87136
2018-05-04T05:51:06.685Z,86688
2018-05-04T05:51:47.332Z,89280
2018-05-04T05:52:27.908Z,89024
2018-05-04T05:53:08.772Z,88288
2018-05-04T05:53:49.537Z,88576
2018-05-04T05:54:30.225Z,89312
2018-05-04T05:55:10.882Z,89280
2018-05-04T05:55:51.680Z,87840
2018-05-04T05:56:32.434Z,85216
2018-05-04T05:57:12.995Z,84672
2018-05-04T05:57:53.561Z,84864
2018-05-04T05:58:34.141Z,86112
2018-05-04T05:59:14.852Z,87680
2018-05-04T05:59:55.430Z,89728
2018-05-04T06:00:36.135Z,91072
2018-05-04T06:01:16.739Z,92192
2018-05-04T06:01:57.323Z,92864
2018-05-04T06:02:37.888Z,93056
2018-05-04T06:03:18.863Z,92704
2018-05-04T06:03:59.446Z,91104
2018-05-04T06:04:40.255Z,89376
2018-05-04T06:05:20.839Z,86720
2018-05-04T06:06:01.420Z,84608
2018-05-04T06:06:42.083Z,85312
2018-05-04T06:07:23.957Z,87712
2018-05-04T06:08:04.910Z,89088
2018-05-04T06:08:45.481Z,88288
2018-05-04T06:09:26.688Z,88384
2018-05-04T06:10:07.497Z,88000
2018-05-04T06:10:48.223Z,87648
2018-05-04T06:11:29.119Z,87008
2018-05-04T06:12:09.829Z,86592
2018-05-04T06:12:50.715Z,86144
2018-05-04T06:13:31.397Z,85472
2018-05-04T06:14:11.969Z,85824
2018-05-04T06:14:52.544Z,86336
2018-05-04T06:15:33.265Z,87808
2018-05-04T06:16:13.842Z,89184
2018-05-04T06:16:54.448Z,89536
2018-05-04T06:17:35.169Z,88032
2018-05-04T06:18:16.089Z,85280
2018-05-04T06:18:57.158Z,85664
2018-05-04T06:19:37.900Z,87840
2018-05-04T06:20:18.491Z,89408
2018-05-04T06:20:59.069Z,88192
2018-05-04T06:21:39.709Z,88704
2018-05-04T06:22:20.283Z,89824
2018-05-04T06:23:00.857Z,89312
2018-05-04T06:23:41.446Z,86944
2018-05-04T06:24:22.038Z,87328
2018-05-04T06:25:02.935Z,88480
2018-05-04T06:25:43.757Z,88416
2018-05-04T06:26:24.344Z,87616
2018-05-04T06:27:04.955Z,88768
2018-05-04T06:27:45.513Z,89728
2018-05-04T06:28:26.092Z,88352
2018-05-04T06:29:06.675Z,88768
2018-05-04T06:29:47.580Z,90304
2018-05-04T06:30:28.299Z,89440
2018-05-04T06:31:08.855Z,89440
2018-05-04T06:31:49.435Z,88256
2018-05-04T06:32:30.263Z,88928
2018-05-04T06:33:10.858Z,89056
2018-05-04T06:33:54.323Z,87776
2018-05-04T06:34:34.962Z,88704
2018-05-04T06:35:16.040Z,91040
2018-05-04T06:35:56.653Z,92224
2018-05-04T06:36:37.240Z,90336
2018-05-04T06:37:17.892Z,90304
2018-05-04T06:37:59.149Z,91264
2018-05-04T06:38:39.620Z,92384
2018-05-04T06:39:20.649Z,92128
2018-05-04T06:40:01.134Z,92672
2018-05-04T06:40:41.702Z,92384
2018-05-04T06:41:22.341Z,92096
2018-05-04T06:42:02.889Z,91616
2018-05-04T06:42:43.452Z,92480
2018-05-04T06:43:24.060Z,93696
2018-05-04T06:44:04.649Z,94592
2018-05-04T06:44:45.253Z,94784
2018-05-04T06:45:25.843Z,95296
2018-05-04T06:46:06.416Z,95200
2018-05-04T06:46:46.988Z,94656
2018-05-04T06:47:27.586Z,93024
2018-05-04T06:48:08.214Z,92160
2018-05-04T06:48:48.832Z,92128
2018-05-04T06:49:29.357Z,95040
2018-05-04T06:50:09.935Z,96288
2018-05-04T06:50:50.535Z,96352
2018-05-04T06:51:31.137Z,95296
2018-05-04T06:52:11.722Z,96672
2018-05-04T06:52:52.368Z,95232
2018-05-04T06:53:32.946Z,91872
2018-05-04T06:54:13.549Z,90720
2018-05-04T06:54:54.852Z,92128
2018-05-04T06:55:36.124Z,94464
2018-05-04T06:56:16.689Z,95136
2018-05-04T06:56:57.626Z,94880
2018-05-04T06:57:38.213Z,92576
2018-05-04T06:58:18.816Z,92640
2018-05-04T06:58:59.390Z,93952
2018-05-04T06:59:39.962Z,95360
2018-05-04T07:00:20.588Z,95264
2018-05-04T07:01:02.048Z,93472
2018-05-04T07:01:42.795Z,92128
2018-05-04T07:02:23.462Z,92800
2018-05-04T07:03:04.093Z,92864
2018-05-04T07:03:44.690Z,90336
2018-05-04T07:04:25.467Z,89152
2018-05-04T07:05:06.009Z,89888
2018-05-04T07:05:46.572Z,91776
2018-05-04T07:06:27.390Z,92480
2018-05-04T07:07:08.011Z,93344
2018-05-04T07:07:48.680Z,92928
2018-05-04T07:08:29.289Z,92736
2018-05-04T07:09:09.912Z,91488
2018-05-04T07:09:50.485Z,91616
2018-05-04T07:10:31.099Z,92960
2018-05-04T07:11:11.688Z,94400
2018-05-04T07:11:52.269Z,96416
2018-05-04T07:12:32.870Z,94528
2018-05-04T07:13:13.459Z,91328
2018-05-04T07:13:54.017Z,91552
2018-05-04T07:14:34.630Z,93984
2018-05-04T07:15:15.214Z,96032
2018-05-04T07:15:55.798Z,94624
2018-05-04T07:16:36.368Z,93920
2018-05-04T07:17:16.946Z,95712
2018-05-04T07:17:57.530Z,96000
2018-05-04T07:18:38.110Z,94688
2018-05-04T07:19:18.685Z,93536
2018-05-04T07:19:59.273Z,94016
2018-05-04T07:20:39.856Z,93792
2018-05-04T07:21:20.447Z,95328
2018-05-04T07:22:01.043Z,95328
2018-05-04T07:22:41.603Z,95136
2018-05-04T07:23:22.187Z,93024
2018-05-04T07:24:02.772Z,91200
2018-05-04T07:24:43.362Z,91808
2018-05-04T07:25:23.959Z,92320
2018-05-04T07:26:04.567Z,90944
2018-05-04T07:26:45.159Z,90176
2018-05-04T07:27:25.729Z,90688
2018-05-04T07:28:06.320Z,93696
2018-05-04T07:28:46.986Z,93728
2018-05-04T07:29:27.508Z,91392
2018-05-04T07:30:08.091Z,90912
2018-05-04T07:30:48.690Z,88064
2018-05-04T07:31:29.280Z,85184
2018-05-04T07:32:09.865Z,87328
2018-05-04T07:32:50.475Z,88864
2018-05-04T07:33:31.068Z,91840
2018-05-04T07:34:11.637Z,95360
2018-05-04T07:34:52.210Z,95648
2018-05-04T07:35:32.789Z,92416
2018-05-04T07:36:13.378Z,92416
2018-05-04T07:36:53.958Z,94624
2018-05-04T07:37:34.534Z,94368
2018-05-04T07:38:15.127Z,92640
2018-05-04T07:38:55.706Z,94016
2018-05-04T07:39:36.308Z,93600
2018-05-04T07:40:16.872Z,93696
2018-05-04T07:40:57.449Z,92672
2018-05-04T07:41:38.044Z,93504
2018-05-04T07:42:18.652Z,92992
2018-05-04T07:42:59.223Z,90144
2018-05-04T07:43:39.789Z,91296
2018-05-04T07:44:20.408Z,91808
2018-05-04T07:45:00.979Z,90688
2018-05-04T07:45:41.568Z,89216
2018-05-04T07:46:22.162Z,87936
2018-05-04T07:47:02.765Z,88480
2018-05-04T07:47:43.348Z,89280
2018-05-04T07:48:24.267Z,89184
2018-05-04T07:49:04.872Z,89504
2018-05-04T07:49:45.446Z,89152
2018-05-04T07:50:26.019Z,89824
2018-05-04T07:51:06.603Z,89312
2018-05-04T07:51:47.222Z,88160
2018-05-04T07:52:28.095Z,88192
2018-05-04T07:53:08.766Z,89344
2018-05-04T07:53:49.316Z,89984
2018-05-04T07:54:29.909Z,87904
2018-05-04T07:55:10.594Z,87104
2018-05-04T07:55:51.093Z,87040
2018-05-04T07:56:31.664Z,84672
2018-05-04T07:57:12.270Z,83360
2018-05-04T07:57:52.864Z,81824
2018-05-04T07:58:33.439Z,81632
2018-05-04T07:59:14.032Z,80544
2018-05-04T07:59:54.601Z,79392
2018-05-04T08:00:35.233Z,69376
2018-05-04T08:01:15.755Z,46080
2018-05-04T08:01:56.410Z,24960
2018-05-04T08:02:36.970Z,19680
2018-05-04T08:03:17.553Z,18848
2018-05-04T08:03:58.231Z,18304
2018-05-04T08:04:38.886Z,18016
2018-05-04T08:05:19.482Z,17696
2018-05-04T08:06:00.089Z,17440
2018-05-04T08:06:40.671Z,17152
2018-05-04T08:07:21.245Z,16896
2018-05-04T08:08:01.818Z,16544
2018-05-04T08:08:42.377Z,16256
2018-05-04T08:09:22.958Z,15904
2018-05-04T08:10:03.570Z,15552
2018-05-04T08:10:44.158Z,15016
2018-05-04T08:11:24.756Z,14720
2018-05-04T08:12:05.353Z,14344
2018-05-04T08:12:45.963Z,13984
2018-05-04T08:13:26.544Z,13664
2018-05-04T08:14:07.134Z,13252
2018-05-04T08:14:47.722Z,12876
2018-05-04T08:15:28.323Z,12548
2018-05-04T08:16:08.913Z,12228
2018-05-04T08:16:49.480Z,11944
2018-05-04T08:17:30.064Z,11668
2018-05-04T08:18:10.641Z,11416
2018-05-04T08:18:51.211Z,11212
2018-05-04T08:19:31.799Z,10896
2018-05-04T08:20:12.482Z,10636
2018-05-04T08:20:52.988Z,10424
2018-05-04T08:21:33.572Z,10224
2018-05-04T08:22:14.143Z,10044
2018-05-04T08:22:54.709Z,9856
2018-05-04T08:23:35.286Z,9696
2018-05-04T08:24:15.873Z,9540
2018-05-04T08:24:56.442Z,9364
2018-05-04T08:25:37.043Z,9196
2018-05-04T08:26:17.601Z,9056
2018-05-04T08:26:58.171Z,8908
2018-05-04T08:27:38.747Z,8772
2018-05-04T08:28:19.317Z,8612
2018-05-04T08:28:59.898Z,8496
2018-05-04T08:29:40.493Z,8372
2018-05-04T08:30:21.085Z,8272
2018-05-04T08:31:01.642Z,8132
2018-05-04T08:31:42.188Z,8032
2018-05-04T08:32:22.759Z,7924
2018-05-04T08:33:03.356Z,7820
2018-05-04T08:33:43.937Z,7716
2018-05-04T08:34:24.562Z,7628
2018-05-04T08:35:05.218Z,7520
2018-05-04T08:35:45.779Z,7440
2018-05-04T08:36:26.344Z,7352
2018-05-04T08:37:06.922Z,7256
2018-05-04T08:37:47.484Z,7172
2018-05-04T08:38:28.090Z,7088
2018-05-04T08:39:08.668Z,7020
2018-05-04T08:39:49.257Z,6940
2018-05-04T08:40:29.852Z,6864
2018-05-04T08:41:10.441Z,6784
2018-05-04T08:41:50.998Z,6708
2018-05-04T08:42:31.596Z,6640
2018-05-04T08:43:12.226Z,6564
2018-05-04T08:43:52.743Z,6500
2018-05-04T08:44:33.309Z,6436
2018-05-04T08:45:13.885Z,6376
2018-05-04T08:45:54.449Z,6304
2018-05-04T08:46:35.013Z,6228
2018-05-04T08:47:15.619Z,6176
2018-05-04T08:47:56.221Z,6136
2018-05-04T08:48:36.787Z,6088
2018-05-04T08:49:17.368Z,6040
2018-05-04T08:49:57.983Z,5988
2018-05-04T08:50:38.542Z,5948
2018-05-04T08:51:19.117Z,5888
2018-05-04T08:51:59.701Z,5832
2018-05-04T08:52:40.309Z,5780
2018-05-04T08:53:20.869Z,5736
2018-05-04T08:54:01.514Z,5692
2018-05-04T08:54:42.116Z,5660
2018-05-04T08:55:22.671Z,5628
2018-05-04T08:56:03.245Z,5580
2018-05-04T08:56:43.835Z,5548
2018-05-04T08:57:24.448Z,5504
2018-05-04T08:58:05.000Z,5472
2018-05-04T08:58:45.557Z,5420
2018-05-04T08:59:26.129Z,5376
2018-05-04T09:00:06.706Z,5344
2018-05-04T09:00:47.281Z,5312
2018-05-04T09:01:27.835Z,5280
2018-05-04T09:02:08.480Z,5260
2018-05-04T09:02:49.076Z,5208
2018-05-04T09:03:29.650Z,5168
2018-05-04T09:04:10.270Z,5132
2018-05-04T09:04:50.868Z,5112
2018-05-04T09:05:31.476Z,5068
2018-05-04T09:06:12.020Z,5004
2018-05-04T09:06:52.589Z,4972
2018-05-04T09:07:33.191Z,4920
2018-05-04T09:08:13.747Z,4896
2018-05-04T09:08:54.339Z,4856
2018-05-04T09:09:34.906Z,4824
2018-05-04T09:10:15.500Z,4808
2018-05-04T09:10:56.059Z,4764
2018-05-04T09:11:36.644Z,4736
2018-05-04T09:12:17.222Z,4708
2018-05-04T09:12:57.798Z,4684
2018-05-04T09:13:38.372Z,4644
2018-05-04T09:14:18.933Z,4612
2018-05-04T09:14:59.496Z,4592
2018-05-04T09:15:40.061Z,4560
2018-05-04T09:16:20.640Z,4544
2018-05-04T09:17:01.238Z,4520
2018-05-04T09:17:41.800Z,4496
2018-05-04T09:18:22.415Z,4472
2018-05-04T09:19:03.034Z,4456
2018-05-04T09:19:43.636Z,4436
2018-05-04T09:20:24.394Z,4416
2018-05-04T09:21:04.953Z,4400
2018-05-04T09:21:45.517Z,4376
2018-05-04T09:22:26.093Z,4372
2018-05-04T09:23:06.659Z,4348
2018-05-04T09:23:47.248Z,4344
2018-05-04T09:24:27.806Z,4312
2018-05-04T09:25:08.452Z,4292
2018-05-04T09:25:49.037Z,4264
2018-05-04T09:26:29.625Z,4256
2018-05-04T09:27:10.227Z,4232
2018-05-04T09:27:50.825Z,4212
2018-05-04T09:28:31.400Z,4196
2018-05-04T09:29:11.964Z,4180
2018-05-04T09:29:52.545Z,4168
2018-05-04T09:30:33.146Z,4140
2018-05-04T09:31:13.719Z,4124
2018-05-04T09:31:54.307Z,4116
2018-05-04T09:32:34.874Z,4096
2018-05-04T09:33:15.432Z,4088
2018-05-04T09:33:56.013Z,4072
2018-05-04T09:34:36.593Z,4060
2018-05-04T09:35:17.186Z,4056
2018-05-04T09:35:57.773Z,4052
2018-05-04T09:36:38.340Z,4032
2018-05-04T09:37:19.028Z,4024
2018-05-04T09:37:59.518Z,4012
2018-05-04T09:38:40.110Z,3992
2018-05-04T09:39:20.665Z,3980
2018-05-04T09:40:01.241Z,3964
2018-05-04T09:40:41.935Z,3952
2018-05-04T09:41:22.409Z,3940
2018-05-04T09:42:03.000Z,3944
2018-05-04T09:42:43.585Z,3928
2018-05-04T09:43:24.248Z,3928
2018-05-04T09:44:04.738Z,3920
2018-05-04T09:44:45.297Z,3916
2018-05-04T09:45:25.864Z,3896
2018-05-04T09:46:06.428Z,3892
2018-05-04T09:46:47.002Z,3888
2018-05-04T09:47:27.566Z,3876
2018-05-04T09:48:08.123Z,3872
2018-05-04T09:48:48.690Z,3864
2018-05-04T09:49:29.267Z,3856
2018-05-04T09:50:09.838Z,3856
2018-05-04T09:50:50.417Z,3844
2018-05-04T09:51:31.000Z,3836
2018-05-04T09:52:11.585Z,3828
2018-05-04T09:52:52.165Z,3816
2018-05-04T09:53:32.752Z,3812
2018-05-04T09:54:13.310Z,3808
2018-05-04T09:54:53.885Z,3800
2018-05-04T09:55:34.440Z,3788
2018-05-04T09:56:15.008Z,3776
2018-05-04T09:56:55.638Z,3764
2018-05-04T09:57:36.166Z,3756
2018-05-04T09:58:16.743Z,3744
2018-05-04T09:58:57.304Z,3728
2018-05-04T09:59:37.885Z,3716
2018-05-04T10:00:18.450Z,3700
2018-05-04T10:00:59.044Z,3688
2018-05-04T10:01:39.698Z,3676
2018-05-04T10:02:20.246Z,3664
2018-05-04T10:03:00.809Z,3648
2018-05-04T10:03:41.383Z,3632
2018-05-04T10:04:21.944Z,3624
2018-05-04T10:05:02.525Z,3600
2018-05-04T10:05:43.121Z,3588
2018-05-04T10:06:23.718Z,3568
2018-05-04T10:07:04.294Z,3560
2018-05-04T10:07:44.896Z,3552
2018-05-04T10:08:25.548Z,3540
2018-05-04T10:09:06.117Z,3536
2018-05-04T10:09:46.665Z,3528
2018-05-04T10:10:27.233Z,3528
2018-05-04T10:11:07.852Z,3524
2018-05-04T10:11:48.419Z,3512
2018-05-04T10:12:28.986Z,3508
2018-05-04T10:13:09.554Z,3500
2018-05-04T10:13:50.108Z,3492
2018-05-04T10:14:30.668Z,3484
2018-05-04T10:15:11.256Z,3472
2018-05-04T10:15:51.833Z,3464
2018-05-04T10:16:32.391Z,3444
2018-05-04T10:17:13.014Z,3436
2018-05-04T10:17:53.588Z,3424
2018-05-04T10:18:34.191Z,3408
2018-05-04T10:19:14.753Z,3404
2018-05-04T10:19:55.314Z,3384
2018-05-04T10:20:35.875Z,3384
2018-05-04T10:21:16.494Z,3376
2018-05-04T10:21:57.085Z,3348
2018-05-04T10:22:37.639Z,3332
2018-05-04T10:23:18.205Z,3336
2018-05-04T10:23:58.807Z,3316
2018-05-04T10:24:39.365Z,3296
2018-05-04T10:25:19.934Z,3288
2018-05-04T10:26:00.557Z,3272
2018-05-04T10:26:41.122Z,3272
2018-05-04T10:27:21.686Z,3248
2018-05-04T10:28:02.253Z,3240
2018-05-04T10:28:42.847Z,3220
2018-05-04T10:29:23.406Z,3208
2018-05-04T10:30:03.980Z,3200
2018-05-04T10:30:44.549Z,3192
2018-05-04T10:31:25.163Z,3184
2018-05-04T10:32:05.684Z,3172
2018-05-04T10:32:46.263Z,3152
2018-05-04T10:33:26.831Z,3156
2018-05-04T10:34:07.397Z,3140
2018-05-04T10:34:47.979Z,3132
2018-05-04T10:35:28.533Z,3124
2018-05-04T10:36:09.103Z,3112
2018-05-04T10:36:49.675Z,3108
2018-05-04T10:37:30.294Z,3100
2018-05-04T10:38:10.862Z,3092
2018-05-04T10:38:51.523Z,3080
2018-05-04T10:39:31.999Z,3064
2018-05-04T10:40:12.566Z,3064
2018-05-04T10:40:53.128Z,3064
2018-05-04T10:41:33.737Z,3056
2018-05-04T10:42:14.292Z,3060
2018-05-04T10:42:54.854Z,3052
2018-05-04T10:43:35.425Z,3036
2018-05-04T10:44:15.997Z,3028
2018-05-04T10:44:56.557Z,3036
2018-05-04T10:45:37.125Z,3028
2018-05-04T10:46:17.675Z,3024
2018-05-04T10:46:58.240Z,3016
2018-05-04T10:47:38.794Z,3008
2018-05-04T10:48:19.363Z,2996
2018-05-04T10:48:59.941Z,2996
2018-05-04T10:49:40.505Z,2992
2018-05-04T10:50:21.090Z,2988
2018-05-04T10:51:01.660Z,2980
2018-05-04T10:51:42.228Z,2968
2018-05-04T10:52:22.788Z,2960
2018-05-04T10:53:03.359Z,2964
2018-05-04T10:53:43.917Z,2964
2018-05-04T10:54:24.487Z,2964
2018-05-04T10:55:05.059Z,2956
2018-05-04T10:55:45.628Z,2948
2018-05-04T10:56:26.192Z,2944
2018-05-04T10:57:06.791Z,2936
2018-05-04T10:57:47.341Z,2936
2018-05-04T10:58:27.893Z,2924
2018-05-04T10:59:08.476Z,2912
2018-05-04T10:59:49.079Z,2912
2018-05-04T11:00:29.658Z,2908
2018-05-04T11:01:10.223Z,2896
2018-05-04T11:01:50.791Z,2892
2018-05-04T11:02:31.353Z,2888
2018-05-04T11:03:11.927Z,2880
2018-05-04T11:03:52.490Z,2880
2018-05-04T11:04:33.052Z,2880
2018-05-04T11:05:13.611Z,2884
2018-05-04T11:05:54.168Z,2888
2018-05-04T11:06:34.725Z,2880
2018-05-04T11:07:15.288Z,2872
2018-05-04T11:07:55.857Z,2872
2018-05-04T11:08:36.419Z,2868
2018-05-04T11:09:16.986Z,2864
2018-05-04T11:09:57.552Z,2864
2018-05-04T11:10:38.136Z,2868
2018-05-04T11:11:18.697Z,2868
2018-05-04T11:11:59.342Z,2868
2018-05-04T11:12:39.857Z,2864
2018-05-04T11:13:20.444Z,2868
2018-05-04T11:14:01.013Z,2864
2018-05-04T11:14:41.569Z,2856
2018-05-04T11:15:22.133Z,2856
2018-05-04T11:16:02.703Z,2844
2018-05-04T11:16:43.283Z,2852
2018-05-04T11:17:23.857Z,2856
2018-05-04T11:18:04.421Z,2856
2018-05-04T11:18:44.982Z,2860
2018-05-04T11:19:25.619Z,2864
2018-05-04T11:20:06.105Z,2860
2018-05-04T11:20:46.664Z,2860
2018-05-04T11:21:27.224Z,2860
2018-05-04T11:22:07.792Z,2856
2018-05-04T11:22:48.360Z,2868
2018-05-04T11:23:28.929Z,2860
2018-05-04T11:24:09.498Z,2868
2018-05-04T11:24:50.060Z,2868
2018-05-04T11:25:30.699Z,2868
2018-05-04T11:26:11.200Z,2872
2018-05-04T11:26:51.764Z,2880
2018-05-04T11:27:32.328Z,2880
2018-05-04T11:28:12.899Z,2888
2018-05-04T11:28:53.457Z,2892
2018-05-04T11:29:34.016Z,2900
2018-05-04T11:30:14.609Z,2912
2018-05-04T11:30:55.208Z,2912
2018-05-04T11:31:35.762Z,2924
2018-05-04T11:32:16.343Z,2924
2018-05-04T11:32:56.927Z,2936
2018-05-04T11:33:37.518Z,2936
2018-05-04T11:34:18.081Z,2952
2018-05-04T11:34:58.666Z,2964
2018-05-04T11:35:39.224Z,2968
2018-05-04T11:36:19.812Z,2984
2018-05-04T11:37:00.375Z,2988
2018-05-04T11:37:40.945Z,2996
2018-05-04T11:38:21.508Z,3004
2018-05-04T11:39:02.110Z,3012
2018-05-04T11:39:42.671Z,3020
2018-05-04T11:40:23.242Z,3024
2018-05-04T11:41:03.812Z,3020
2018-05-04T11:41:44.376Z,3036
2018-05-04T11:42:24.963Z,3040
2018-05-04T11:43:05.542Z,3048
2018-05-04T11:43:46.110Z,3060
2018-05-04T11:44:26.677Z,3052
2018-05-04T11:45:07.275Z,3060
2018-05-04T11:45:47.830Z,3068
2018-05-04T11:46:28.403Z,3076
2018-05-04T11:47:08.997Z,3076
2018-05-04T11:47:49.541Z,3084
2018-05-04T11:48:30.130Z,3084
2018-05-04T11:49:10.712Z,3080
2018-05-04T11:49:51.273Z,3088
2018-05-04T11:50:31.866Z,3088
2018-05-04T11:51:12.457Z,3100
2018-05-04T11:51:53.065Z,3104
2018-05-04T11:52:33.662Z,3100
2018-05-04T11:53:14.219Z,3100
2018-05-04T11:53:54.867Z,3104
2018-05-04T11:54:35.373Z,3104
2018-05-04T11:55:16.016Z,3112
2018-05-04T11:55:56.509Z,3116
2018-05-04T11:56:37.075Z,3112
2018-05-04T11:57:17.644Z,3128
2018-05-04T11:57:58.212Z,3132
2018-05-04T11:58:38.776Z,3132
2018-05-04T11:59:19.353Z,3140
2018-05-04T11:59:59.923Z,3144
2018-05-04T12:00:40.492Z,3144
2018-05-04T12:01:21.074Z,3140
2018-05-04T12:02:01.678Z,3156
2018-05-04T12:02:42.277Z,3152
2018-05-04T12:03:22.849Z,3156
2018-05-04T12:04:03.545Z,3164
2018-05-04T12:04:44.103Z,3148
2018-05-04T12:05:24.620Z,3172
2018-05-04T12:06:05.186Z,3176
2018-05-04T12:06:45.755Z,3172
2018-05-04T12:07:26.319Z,3180
2018-05-04T12:08:06.880Z,3180
2018-05-04T12:08:47.504Z,3188
2018-05-04T12:09:28.073Z,3180
2018-05-04T12:10:08.682Z,3188
2018-05-04T12:10:49.274Z,3164
2018-05-04T12:11:29.828Z,3152
2018-05-04T12:12:10.392Z,3172
2018-05-04T12:12:50.971Z,3188
2018-05-04T12:13:31.515Z,3188
2018-05-04T12:14:12.078Z,3224
2018-05-04T12:14:52.654Z,3232
2018-05-04T12:15:33.288Z,3232
2018-05-04T12:16:13.883Z,3240
2018-05-04T12:16:54.427Z,3256
2018-05-04T12:17:34.959Z,3272
2018-05-04T12:18:15.514Z,3228
2018-05-04T12:18:56.074Z,3272
2018-05-04T12:19:37.051Z,3272
2018-05-04T12:20:18.195Z,3284
2018-05-04T12:20:58.757Z,3288
2018-05-04T12:21:39.314Z,3308
2018-05-04T12:22:19.881Z,3316
2018-05-04T12:23:00.463Z,3320
2018-05-04T12:23:41.017Z,3308
2018-05-04T12:24:21.599Z,3304
2018-05-04T12:25:02.278Z,3256
2018-05-04T12:25:42.833Z,3348
2018-05-04T12:26:23.397Z,3340
2018-05-04T12:27:03.966Z,3348
2018-05-04T12:27:44.527Z,3368
2018-05-04T12:28:25.109Z,3372
2018-05-04T12:29:05.682Z,3376
2018-05-04T12:29:46.280Z,3372
2018-05-04T12:30:26.852Z,3384
2018-05-04T12:31:07.416Z,3388
2018-05-04T12:31:47.980Z,3408
2018-05-04T12:32:28.584Z,3416
2018-05-04T12:33:09.176Z,3412
2018-05-04T12:33:49.742Z,3416
2018-05-04T12:34:30.305Z,3432
2018-05-04T12:35:10.885Z,3428
2018-05-04T12:35:51.455Z,3444
2018-05-04T12:36:32.028Z,3448
2018-05-04T12:37:12.659Z,3428
2018-05-04T12:37:53.156Z,3440
2018-05-04T12:38:33.784Z,3444
2018-05-04T12:39:14.285Z,3444
2018-05-04T12:39:54.858Z,3460
2018-05-04T12:40:35.436Z,3468
2018-05-04T12:41:16.004Z,3472
2018-05-04T12:41:56.597Z,3472
2018-05-04T12:42:37.140Z,3476
2018-05-04T12:43:17.747Z,3432
2018-05-04T12:43:58.321Z,3452
2018-05-04T12:44:38.906Z,3472
2018-05-04T12:45:19.487Z,3480
2018-05-04T12:46:00.078Z,3512
2018-05-04T12:46:40.674Z,3524
2018-05-04T12:47:21.247Z,3532
2018-05-04T12:48:01.814Z,3544
2018-05-04T12:48:42.395Z,3552
2018-05-04T12:49:22.956Z,3560
2018-05-04T12:50:03.529Z,3568
2018-05-04T12:50:44.128Z,3576
2018-05-04T12:51:24.715Z,3580
2018-05-04T12:52:05.272Z,3588
2018-05-04T12:52:45.835Z,3592
2018-05-04T12:53:26.436Z,3568
2018-05-04T12:54:06.994Z,3544
2018-05-04T12:54:47.564Z,3516
2018-05-04T12:55:28.145Z,3496
2018-05-04T12:56:08.728Z,3600
2018-05-04T12:56:49.306Z,3600
2018-05-04T12:57:29.863Z,3616
2018-05-04T12:58:10.426Z,3604
2018-05-04T12:58:51.022Z,3608
2018-05-04T12:59:31.591Z,3544
2018-05-04T13:00:12.156Z,3608
2018-05-04T13:00:52.733Z,3584
2018-05-04T13:01:33.298Z,3592
2018-05-04T13:02:13.848Z,3608
2018-05-04T13:02:54.412Z,3596
2018-05-04T13:03:34.991Z,3628
2018-05-04T13:04:15.567Z,3656
2018-05-04T13:04:56.196Z,3652
2018-05-04T13:05:36.977Z,3676
2018-05-04T13:06:17.562Z,3676
2018-05-04T13:06:58.115Z,3620
2018-05-04T13:07:38.671Z,3592
2018-05-04T13:08:19.265Z,3596
2018-05-04T13:08:59.832Z,3544
2018-05-04T13:09:40.435Z,3652
2018-05-04T13:10:21.035Z,3736
2018-05-04T13:11:01.660Z,3772
2018-05-04T13:11:42.222Z,3804
2018-05-04T13:12:22.812Z,3832
2018-05-04T13:13:03.398Z,3852
2018-05-04T13:13:43.958Z,3864
2018-05-04T13:14:24.533Z,3884
2018-05-04T13:15:05.088Z,3900
2018-05-04T13:15:45.645Z,3920
2018-05-04T13:16:26.203Z,3928
2018-05-04T13:17:06.801Z,3952
2018-05-04T13:17:47.369Z,3964
2018-05-04T13:18:27.948Z,3968
2018-05-04T13:19:08.504Z,3976
2018-05-04T13:19:49.067Z,3984
2018-05-04T13:20:29.691Z,3992
2018-05-04T13:21:10.250Z,4000
2018-05-04T13:21:50.826Z,3884
2018-05-04T13:22:31.438Z,3928
2018-05-04T13:23:12.003Z,3964
2018-05-04T13:23:52.565Z,3992
2018-05-04T13:24:33.126Z,4012
2018-05-04T13:25:13.716Z,4028
2018-05-04T13:25:54.316Z,4024
2018-05-04T13:26:34.926Z,4016
2018-05-04T13:27:15.491Z,4028
2018-05-04T13:27:56.097Z,4024
2018-05-04T13:28:36.631Z,4036
2018-05-04T13:29:17.229Z,4076
2018-05-04T13:29:57.815Z,4092
2018-05-04T13:30:38.367Z,4020
2018-05-04T13:31:18.963Z,3992
2018-05-04T13:31:59.524Z,3684
2018-05-04T13:32:40.106Z,3628
2018-05-04T13:33:20.694Z,3852
2018-05-04T13:34:01.295Z,3912
2018-05-04T13:34:41.911Z,4172
2018-05-04T13:35:22.473Z,3988
2018-05-04T13:36:03.034Z,3956
2018-05-04T13:36:43.976Z,4064
2018-05-04T13:37:24.886Z,4032
2018-05-04T13:38:05.446Z,4208
2018-05-04T13:38:46.273Z,4260
2018-05-04T13:39:26.889Z,4120
2018-05-04T13:40:07.518Z,3932
2018-05-04T13:40:48.281Z,3920
2018-05-04T13:41:29.092Z,3652
2018-05-04T13:42:09.722Z,3528
2018-05-04T13:42:50.504Z,3504
2018-05-04T13:43:31.087Z,3604
2018-05-04T13:44:11.674Z,3804
2018-05-04T13:44:52.260Z,3708
2018-05-04T13:45:32.881Z,3724
2018-05-04T13:46:13.411Z,4012
2018-05-04T13:46:54.195Z,4184
2018-05-04T13:47:34.925Z,4264
2018-05-04T13:48:15.538Z,4160
2018-05-04T13:48:56.342Z,4104
2018-05-04T13:49:36.917Z,4212
2018-05-04T13:50:17.495Z,4212
2018-05-04T13:50:58.067Z,4036
2018-05-04T13:51:38.841Z,3696
2018-05-04T13:52:19.237Z,3980
2018-05-04T13:52:59.812Z,3984
2018-05-04T13:53:40.374Z,4268
2018-05-04T13:54:20.937Z,4260
2018-05-04T13:55:01.508Z,4076
2018-05-04T13:55:42.086Z,3864
2018-05-04T13:56:22.678Z,3596
2018-05-04T13:57:03.250Z,4032
2018-05-04T13:57:43.853Z,3948
2018-05-04T13:58:24.429Z,3592
2018-05-04T13:59:05.025Z,3728
2018-05-04T13:59:45.586Z,3468
2018-05-04T14:00:26.190Z,3564
2018-05-04T14:01:06.853Z,3624
2018-05-04T14:01:47.336Z,3844
2018-05-04T14:02:27.929Z,3964
2018-05-04T14:03:08.505Z,3940
2018-05-04T14:03:49.150Z,3844
2018-05-04T14:04:29.671Z,4152
2018-05-04T14:05:10.284Z,4652
2018-05-04T14:05:50.866Z,4700
2018-05-04T14:06:31.447Z,4772
2018-05-04T14:07:12.009Z,4876
2018-05-04T14:07:52.657Z,4336
2018-05-04T14:08:33.251Z,4336
2018-05-04T14:09:13.816Z,4496
2018-05-04T14:09:54.400Z,4632
2018-05-04T14:10:34.980Z,4636
2018-05-04T14:11:15.541Z,4596
2018-05-04T14:11:56.109Z,4664
2018-05-04T14:12:36.697Z,4812
2018-05-04T14:13:17.236Z,4884
2018-05-04T14:13:57.801Z,4932
2018-05-04T14:14:38.357Z,4952
2018-05-04T14:15:18.973Z,4756
2018-05-04T14:15:59.569Z,4916
2018-05-04T14:16:40.130Z,4960
2018-05-04T14:17:20.738Z,4972
2018-05-04T14:18:01.292Z,4812
2018-05-04T14:18:41.951Z,4716
2018-05-04T14:19:22.508Z,4700
2018-05-04T14:20:03.107Z,4708
2018-05-04T14:20:43.664Z,4772
2018-05-04T14:21:24.240Z,5088
2018-05-04T14:22:04.806Z,5204
2018-05-04T14:22:45.390Z,5092
2018-05-04T14:23:25.951Z,4956
2018-05-04T14:24:06.574Z,4912
2018-05-04T14:24:47.123Z,4844
2018-05-04T14:25:27.695Z,4832
2018-05-04T14:26:08.260Z,4760
2018-05-04T14:26:49.175Z,4692
2018-05-04T14:27:30.582Z,4876
2018-05-04T14:28:11.280Z,5088
2018-05-04T14:28:53.547Z,4916
2018-05-04T14:29:34.562Z,4980
2018-05-04T14:30:15.993Z,4984
2018-05-04T14:30:57.338Z,4680